Time;durP1;ratioP1;P1;durP2;ratioP2;P2;SDS_P1;SDS_P2;PMS_P1;PMS_P2;Temp;Humidity;BMP_temperature;BMP_pressure;BME280_temperature;BME280_humidity;BME280_pressure;Samples;Min_cycle;Max_cycle;Signal;HPM_P1;HPM_P2
2022/07/08 00:05:30;;;;;;;0.30;0.30;;;;;;;;;;12650284;28;20040;-84
2022/07/08 00:11:33;;;;;;;0.82;0.43;;;;;;;;;;12632599;28;20048;-78
2022/07/08 00:32:44;;;;;;;0.50;0.50;;;;;;;;;;12650227;28;20035;-80
2022/07/08 00:38:46;;;;;;;0.68;0.68;;;;;;;;;;12654091;28;20055;-78
2022/07/08 00:44:47;;;;;;;0.70;0.60;;;;;;;;;;12649686;28;20498;-80
2022/07/08 00:50:49;;;;;;;0.60;0.60;;;;;;;;;;12652642;28;20043;-79
2022/07/08 00:56:51;;;;;;;0.75;0.75;;;;;;;;;;12615168;28;20028;-84
2022/07/08 01:02:53;;;;;;;0.60;0.60;;;;;;;;;;12630945;28;20028;-84
2022/07/08 01:08:55;;;;;;;;;;;;;;;;;;12649792;28;20055;-85
2022/07/08 01:14:56;;;;;;;1.00;1.00;;;;;;;;;;12649126;28;19912;-85
2022/07/08 01:20:58;;;;;;;1.20;1.20;;;;;;;;;;12647718;28;20040;-85
2022/07/08 01:27:00;;;;;;;;;;;;;;;;;;12651612;28;20546;-85
2022/07/08 01:33:02;;;;;;;1.60;1.27;;;;;;;;;;12650032;28;19990;-78
2022/07/08 01:39:04;;;;;;;0.85;0.85;;;;;;;;;;12647741;28;20407;-85
2022/07/08 01:45:07;;;;;;;1.50;1.40;;;;;;;;;;12628786;28;20063;-78
2022/07/08 01:51:09;;;;;;;1.20;1.15;;;;;;;;;;12628474;28;20035;-84
2022/07/08 01:57:13;;;;;;;1.73;1.63;;;;;;;;;;12628289;28;20035;-85
2022/07/08 02:03:15;;;;;;;2.08;1.80;;;;;;;;;;12611804;28;20032;-78
2022/07/08 02:09:17;;;;;;;1.88;1.77;;;;;;;;;;12646182;28;20063;-78
2022/07/08 02:15:19;;;;;;;2.03;1.90;;;;;;;;;;12628095;28;20044;-78
2022/07/08 02:21:20;;;;;;;1.73;1.63;;;;;;;;;;12646116;28;20040;-83
2022/07/08 02:27:22;;;;;;;2.05;1.95;;;;;;;;;;12630880;28;20044;-85
2022/07/08 02:33:24;;;;;;;1.92;1.83;;;;;;;;;;12648995;28;20032;-85
2022/07/08 02:39:26;;;;;;;1.83;1.73;;;;;;;;;;12627509;28;20043;-84
2022/07/08 02:45:27;;;;;;;2.03;1.92;;;;;;;;;;12626629;28;20135;-79
2022/07/08 02:51:29;;;;;;;1.80;1.70;;;;;;;;;;12610853;28;20047;-79
2022/07/08 02:57:31;;;;;;;1.73;1.63;;;;;;;;;;12626747;28;20383;-84
2022/07/08 03:03:32;;;;;;;1.77;1.67;;;;;;;;;;12627126;28;20039;-79
2022/07/08 03:09:34;;;;;;;2.35;2.17;;;;;;;;;;12610758;28;20043;-78
2022/07/08 03:15:36;;;;;;;2.05;1.90;;;;;;;;;;12626208;28;20032;-79
2022/07/08 03:21:38;;;;;;;1.58;1.48;;;;;;;;;;12625846;28;20040;-84
2022/07/08 03:27:40;;;;;;;2.30;2.20;;;;;;;;;;12626689;28;20040;-84
2022/07/08 03:33:42;;;;;;;2.00;1.90;;;;;;;;;;12644265;28;20041;-84
2022/07/08 03:39:43;;;;;;;1.50;1.40;;;;;;;;;;12643748;28;20533;-85
2022/07/08 03:45:45;;;;;;;1.95;1.85;;;;;;;;;;12627765;28;20047;-79
2022/07/08 03:51:47;;;;;;;2.42;2.08;;;;;;;;;;12652279;28;20032;-79
2022/07/08 03:57:49;;;;;;;1.80;1.70;;;;;;;;;;12654090;28;20047;-84
2022/07/08 04:03:51;;;;;;;1.77;1.67;;;;;;;;;;12652559;28;20043;-78
2022/07/08 04:09:52;;;;;;;1.90;1.80;;;;;;;;;;12634147;28;20048;-84
2022/07/08 04:15:55;;;;;;;1.30;1.20;;;;;;;;;;12651104;28;20047;-84
2022/07/08 04:21:56;;;;;;;1.73;1.63;;;;;;;;;;12616181;28;20036;-84
2022/07/08 04:27:58;;;;;;;;;;;;;;;;;;12633799;28;20586;-83
2022/07/08 04:34:01;;;;;;;1.63;1.53;;;;;;;;;;12615097;28;19908;-84
2022/07/08 04:40:03;;;;;;;1.98;1.80;;;;;;;;;;12649567;28;20052;-78
2022/07/08 04:46:05;;;;;;;1.42;1.33;;;;;;;;;;12631108;28;20044;-78
2022/07/08 04:52:07;;;;;;;2.40;2.25;;;;;;;;;;12630908;28;20032;-78
2022/07/08 04:58:08;;;;;;;2.20;1.98;;;;;;;;;;12648779;28;20039;-78
2022/07/08 05:04:10;;;;;;;2.45;1.70;;;;;;;;;;12629685;28;20043;-78
2022/07/08 05:10:12;;;;;;;;;;;;;;;;;;12649130;28;20044;-78
2022/07/08 05:16:14;;;;;;;2.05;1.95;;;;;;;;;;12612932;28;19926;-79
2022/07/08 05:22:15;;;;;;;4.18;2.25;;;;;;;;;;12650343;28;20036;-78
2022/07/08 05:28:17;;;;;;;1.70;1.50;;;;;;;;;;12629541;28;20039;-79
2022/07/08 05:34:19;;;;;;;2.53;1.80;;;;;;;;;;12628217;28;20466;-78
2022/07/08 05:40:20;;;;;;;1.13;1.02;;;;;;;;;;12626324;28;20047;-79
2022/07/08 05:46:22;;;;;;;1.30;1.20;;;;;;;;;;12624612;28;20427;-79
2022/07/08 05:52:24;;;;;;;1.13;1.00;;;;;;;;;;12642686;28;20039;-79
2022/07/08 05:58:26;;;;;;;1.25;1.15;;;;;;;;;;12642193;28;20035;-86
2022/07/08 06:04:27;;;;;;;0.55;0.50;;;;;;;;;;12643849;28;20032;-85
2022/07/08 06:10:29;;;;;;;0.40;0.40;;;;;;;;;;12623694;28;20055;-84
2022/07/08 06:16:31;;;;;;;0.52;0.52;;;;;;;;;;12677994;28;20502;-85
2022/07/08 06:22:34;;;;;;;0.60;0.60;;;;;;;;;;12622856;28;20043;-86
2022/07/08 06:28:35;;;;;;;;;;;;;;;;;;12623070;28;20051;-86
2022/07/08 06:34:37;;;;;;;0.60;0.50;;;;;;;;;;12640428;28;19908;-78
2022/07/08 06:40:39;;;;;;;;;;;;;;;;;;12639853;28;20395;-79
2022/07/08 06:46:41;;;;;;;0.50;0.50;;;;;;;;;;12639797;28;19920;-79
2022/07/08 06:52:42;;;;;;;0.30;0.30;;;;;;;;;;12604631;28;20400;-81
2022/07/08 06:58:44;;;;;;;;;;;;;;;;;;12647314;28;20043;-80
2022/07/08 07:04:46;;;;;;;0.27;0.27;;;;;;;;;;12649693;28;19914;-75
2022/07/08 07:10:47;;;;;;;;;;;;;;;;;;12604681;28;20036;-80
2022/07/08 07:16:49;;;;;;;0.20;0.20;;;;;;;;;;12640829;28;20103;-75
2022/07/08 07:22:51;;;;;;;;;;;;;;;;;;12627899;28;20036;-77
2022/07/08 07:28:52;;;;;;;0.40;0.40;;;;;;;;;;12629872;28;19916;-79
2022/07/08 07:34:54;;;;;;;0.55;0.20;;;;;;;;;;12629573;28;20032;-79
2022/07/08 07:40:56;;;;;;;0.43;0.30;;;;;;;;;;12647250;28;20047;-80
2022/07/08 07:46:58;;;;;;;;;;;;;;;;;;12648321;28;20044;-79
2022/07/08 07:52:59;;;;;;;0.68;0.20;;;;;;;;;;12612708;28;19911;-79
2022/07/08 07:59:03;;;;;;;0.95;0.38;;;;;;;;;;12629089;28;20039;-77
2022/07/08 08:05:09;;;;;;;0.30;0.25;;;;;;;;;;12645672;28;20111;-78
2022/07/08 08:11:11;;;;;;;1.98;0.47;;;;;;;;;;12628895;28;20051;-79
2022/07/08 08:17:13;;;;;;;0.77;0.40;;;;;;;;;;12638538;28;20050;-77
2022/07/08 08:23:16;;;;;;;0.30;0.30;;;;;;;;;;12627255;28;20054;-81
2022/07/08 08:29:17;;;;;;;0.68;0.60;;;;;;;;;;12645165;28;20405;-80
2022/07/08 08:35:19;;;;;;;0.50;0.30;;;;;;;;;;12644638;28;20031;-81
2022/07/08 08:41:21;;;;;;;1.08;0.40;;;;;;;;;;12610314;28;20048;-80
2022/07/08 08:47:25;;;;;;;0.20;0.20;;;;;;;;;;12625552;28;20147;-80
2022/07/08 08:53:29;;;;;;;3.80;0.43;;;;;;;;;;12644743;28;20040;-86
2022/07/08 08:59:34;;;;;;;0.43;0.20;;;;;;;;;;12646214;28;20358;-81
2022/07/08 09:05:36;;;;;;;0.60;0.50;;;;;;;;;;12607199;28;20035;-81
2022/07/08 09:11:39;;;;;;;0.20;0.20;;;;;;;;;;12624061;28;20281;-82
2022/07/08 09:17:44;;;;;;;0.25;0.25;;;;;;;;;;12624185;28;20044;-81
2022/07/08 09:23:46;;;;;;;0.30;0.30;;;;;;;;;;12624121;28;20438;-82
2022/07/08 09:29:58;;;;;;;0.55;0.20;;;;;;;;;;12641892;28;20352;-80
2022/07/08 09:36:01;;;;;;;1.30;0.40;;;;;;;;;;12623074;28;20430;-82
2022/07/08 09:42:05;;;;;;;0.10;0.10;;;;;;;;;;12640966;28;20044;-81
2022/07/08 09:48:08;;;;;;;1.65;0.20;;;;;;;;;;12640016;28;20075;-81
2022/07/08 09:54:11;;;;;;;0.20;0.20;;;;;;;;;;12622071;28;20024;-80
2022/07/08 10:00:14;;;;;;;0.20;0.10;;;;;;;;;;12640500;28;20435;-85
2022/07/08 10:06:16;;;;;;;0.20;0.20;;;;;;;;;;12621849;28;20039;-80
2022/07/08 10:12:19;;;;;;;1.00;0.60;;;;;;;;;;12637682;28;20043;-79
2022/07/08 10:18:45;;;;;;;0.47;0.20;;;;;;;;;;12602616;28;20507;-78
2022/07/08 10:24:47;;;;;;;0.77;0.40;;;;;;;;;;12619905;28;20043;-78
2022/07/08 10:30:50;;;;;;;1.27;0.30;;;;;;;;;;12621583;28;20445;-79
2022/07/08 10:36:53;;;;;;;1.10;0.22;;;;;;;;;;12640659;28;20036;-78
2022/07/08 10:43:05;;;;;;;0.25;0.25;;;;;;;;;;12640830;28;20060;-81
2022/07/08 10:49:12;;;;;;;0.10;0.10;;;;;;;;;;12640513;28;20040;-78
2022/07/08 10:55:15;;;;;;;0.20;0.20;;;;;;;;;;12625617;28;20036;-80
2022/07/08 11:01:26;;;;;;;0.20;0.20;;;;;;;;;;12650932;28;20035;-82
2022/07/08 11:07:32;;;;;;;0.17;0.10;;;;;;;;;;12615745;28;20044;-82
2022/07/08 11:13:35;;;;;;;1.30;0.43;;;;;;;;;;12632033;28;20511;-82
2022/07/08 11:19:40;;;;;;;0.32;0.10;;;;;;;;;;12615074;28;20100;-82
2022/07/08 11:25:42;;;;;;;1.52;0.50;;;;;;;;;;12632113;28;20472;-82
2022/07/08 11:31:44;;;;;;;0.20;0.20;;;;;;;;;;12650075;28;20040;-82
2022/07/08 11:37:46;;;;;;;0.20;0.20;;;;;;;;;;12649299;28;20048;-79
2022/07/08 11:43:51;;;;;;;1.65;0.20;;;;;;;;;;12630347;28;20051;-79
2022/07/08 11:49:56;;;;;;;0.20;0.20;;;;;;;;;;12613892;28;20388;-79
2022/07/08 11:55:58;;;;;;;0.20;0.20;;;;;;;;;;12647892;28;20028;-79
2022/07/08 12:02:01;;;;;;;0.30;0.20;;;;;;;;;;12647771;28;20036;-79
2022/07/08 12:08:09;;;;;;;0.28;0.20;;;;;;;;;;12646958;28;20048;-80
2022/07/08 12:14:11;;;;;;;0.10;0.10;;;;;;;;;;12612519;28;20066;-83
2022/07/08 12:20:13;;;;;;;0.10;0.10;;;;;;;;;;12647040;28;20040;-82
2022/07/08 12:26:15;;;;;;;0.50;0.20;;;;;;;;;;12628855;28;20483;-83
2022/07/08 12:32:17;;;;;;;0.63;0.10;;;;;;;;;;12647423;28;20388;-82
2022/07/08 12:38:23;;;;;;;0.20;0.20;;;;;;;;;;12647311;28;20279;-81
2022/07/08 12:44:57;;;;;;;0.35;0.20;;;;;;;;;;12628135;28;20040;-83
2022/07/08 12:50:59;;;;;;;0.57;0.20;;;;;;;;;;12591252;28;20044;-82
2022/07/08 12:57:01;;;;;;;0.75;0.20;;;;;;;;;;12627418;28;20496;-80
2022/07/08 13:03:03;;;;;;;0.10;0.10;;;;;;;;;;12609986;28;20039;-83
2022/07/08 13:09:06;;;;;;;0.20;0.20;;;;;;;;;;12645166;28;20361;-81
2022/07/08 13:15:08;;;;;;;0.30;0.30;;;;;;;;;;12626196;28;20044;-82
2022/07/08 13:21:09;;;;;;;0.57;0.20;;;;;;;;;;12625591;28;20040;-82
2022/07/08 13:27:11;;;;;;;0.20;0.10;;;;;;;;;;12626217;28;20036;-80
2022/07/08 13:33:13;;;;;;;0.00;0.00;;;;;;;;;;12625592;28;20027;-79
2022/07/08 13:39:15;;;;;;;0.82;0.20;;;;;;;;;;12608058;28;20520;-79
2022/07/08 13:45:16;;;;;;;0.55;0.20;;;;;;;;;;12624515;28;20051;-79
2022/07/08 13:51:18;;;;;;;0.10;0.10;;;;;;;;;;12624159;28;20044;-80
2022/07/08 13:57:20;;;;;;;0.30;0.20;;;;;;;;;;12624422;28;20027;-80
2022/07/08 14:03:22;;;;;;;2.05;0.25;;;;;;;;;;12607224;28;20035;-80
2022/07/08 14:09:24;;;;;;;1.15;0.15;;;;;;;;;;12623909;28;20051;-78
2022/07/08 14:15:25;;;;;;;0.28;0.10;;;;;;;;;;12622642;28;20488;-81
2022/07/08 14:21:27;;;;;;;1.02;0.20;;;;;;;;;;12624440;28;20032;-83
2022/07/08 14:27:29;;;;;;;0.20;0.20;;;;;;;;;;12640848;28;20403;-79
2022/07/08 14:33:30;;;;;;;0.32;0.20;;;;;;;;;;12605571;28;20536;-82
2022/07/08 14:39:32;;;;;;;0.00;0.00;;;;;;;;;;12641036;28;20396;-84
2022/07/08 14:45:34;;;;;;;0.20;0.20;;;;;;;;;;12640651;28;20039;-83
2022/07/08 14:51:36;;;;;;;1.08;0.10;;;;;;;;;;12609316;28;20043;-87
2022/07/08 14:57:38;;;;;;;1.00;0.30;;;;;;;;;;12642457;28;20028;-84
2022/07/08 15:03:39;;;;;;;0.10;0.10;;;;;;;;;;12612289;28;20040;-85
2022/07/08 15:09:41;;;;;;;0.00;0.00;;;;;;;;;;12583093;28;20063;-83
2022/07/08 15:15:43;;;;;;;0.10;0.10;;;;;;;;;;12619886;28;20032;-84
2022/07/08 15:21:45;;;;;;;0.10;0.00;;;;;;;;;;12619111;28;20036;-84
2022/07/08 15:27:46;;;;;;;0.10;0.03;;;;;;;;;;12637623;28;20039;-82
2022/07/08 15:33:48;;;;;;;0.45;0.10;;;;;;;;;;12637704;28;20062;-85
2022/07/08 15:39:50;;;;;;;0.40;0.10;;;;;;;;;;12638010;28;20067;-83
2022/07/08 15:45:52;;;;;;;0.35;0.15;;;;;;;;;;12645856;28;20055;-83
2022/07/08 15:51:54;;;;;;;0.50;0.10;;;;;;;;;;12646743;28;20186;-85
2022/07/08 15:57:55;;;;;;;0.10;0.10;;;;;;;;;;12627653;28;20038;-84
2022/07/08 16:03:57;;;;;;;0.30;0.15;;;;;;;;;;12645616;28;20039;-84
2022/07/08 16:09:59;;;;;;;0.38;0.08;;;;;;;;;;12647087;28;20052;-82
2022/07/08 16:16:02;;;;;;;0.20;0.20;;;;;;;;;;12628371;28;20035;-84
2022/07/08 16:22:04;;;;;;;4.45;0.50;;;;;;;;;;12628801;28;20275;-83
2022/07/08 16:28:05;;;;;;;0.32;0.20;;;;;;;;;;12628038;28;20050;-82
2022/07/08 16:34:08;;;;;;;1.20;0.20;;;;;;;;;;12628412;28;20032;-78
2022/07/08 16:40:10;;;;;;;0.15;0.15;;;;;;;;;;12646369;28;20048;-83
2022/07/08 16:46:12;;;;;;;0.38;0.10;;;;;;;;;;12626913;28;20041;-81
2022/07/08 16:52:13;;;;;;;0.15;0.13;;;;;;;;;;12645178;28;20043;-81
2022/07/08 16:58:15;;;;;;;0.28;0.20;;;;;;;;;;12644686;28;20072;-82
2022/07/08 17:04:17;;;;;;;0.10;0.10;;;;;;;;;;12626740;28;20036;-82
2022/07/08 17:10:19;;;;;;;0.20;0.10;;;;;;;;;;12645089;28;20040;-82
2022/07/08 17:16:21;;;;;;;0.20;0.10;;;;;;;;;;12640341;28;20055;-81
2022/07/08 17:22:23;;;;;;;1.10;0.20;;;;;;;;;;12620639;28;20412;-77
2022/07/08 17:28:24;;;;;;;0.10;0.10;;;;;;;;;;12643553;28;20051;-77
2022/07/08 17:34:26;;;;;;;0.63;0.10;;;;;;;;;;12642702;28;20396;-77
2022/07/08 17:40:28;;;;;;;0.38;0.20;;;;;;;;;;12626428;28;20081;-76
2022/07/08 17:46:29;;;;;;;0.13;0.13;;;;;;;;;;12626114;28;20051;-81
2022/07/08 17:52:31;;;;;;;0.15;0.15;;;;;;;;;;12625284;28;20024;-78
2022/07/08 17:58:33;;;;;;;0.20;0.10;;;;;;;;;;12643027;28;20039;-77
2022/07/08 18:04:36;;;;;;;0.57;0.20;;;;;;;;;;12642679;28;20392;-77
2022/07/08 18:10:38;;;;;;;0.90;0.40;;;;;;;;;;12625947;28;20594;-78
2022/07/08 18:16:40;;;;;;;0.98;0.75;;;;;;;;;;12642235;28;20066;-77
2022/07/08 18:22:42;;;;;;;1.25;0.50;;;;;;;;;;12623803;28;20392;-77
2022/07/08 18:28:44;;;;;;;1.05;0.70;;;;;;;;;;12641946;28;20040;-77
2022/07/08 18:34:45;;;;;;;0.90;0.40;;;;;;;;;;12624183;28;20032;-82
2022/07/08 18:40:47;;;;;;;0.73;0.55;;;;;;;;;;12623851;28;20047;-81
2022/07/08 18:46:49;;;;;;;1.27;0.50;;;;;;;;;;12642548;28;20043;-81
2022/07/08 18:52:51;;;;;;;2.40;0.75;;;;;;;;;;12624244;28;20040;-82
2022/07/08 18:58:53;;;;;;;2.03;0.50;;;;;;;;;;12641944;28;20031;-76
2022/07/08 19:04:55;;;;;;;1.00;0.40;;;;;;;;;;12624037;28;20032;-76
2022/07/08 19:10:57;;;;;;;0.90;0.30;;;;;;;;;;12624695;28;20044;-81
2022/07/08 19:17:01;;;;;;;0.80;0.30;;;;;;;;;;12646853;28;20040;-82
2022/07/08 19:23:02;;;;;;;0.30;0.30;;;;;;;;;;12632515;28;20044;-82
2022/07/08 19:29:06;;;;;;;0.30;0.30;;;;;;;;;;12632353;28;20511;-82
2022/07/08 19:35:08;;;;;;;0.77;0.50;;;;;;;;;;12638039;28;20036;-77
2022/07/08 19:41:12;;;;;;;0.22;0.22;;;;;;;;;;12650683;28;20051;-82
2022/07/08 19:47:14;;;;;;;0.52;0.40;;;;;;;;;;12651629;28;20047;-82
2022/07/08 19:53:16;;;;;;;0.40;0.40;;;;;;;;;;12632383;28;20047;-76
2022/07/08 19:59:17;;;;;;;1.15;0.30;;;;;;;;;;12631501;28;20036;-76
2022/07/08 20:05:19;;;;;;;0.82;0.60;;;;;;;;;;12634558;28;20039;-76
2022/07/08 20:11:21;;;;;;;1.02;0.50;;;;;;;;;;12650380;28;20052;-76
2022/07/08 20:17:23;;;;;;;0.50;0.50;;;;;;;;;;12631766;28;20028;-76
2022/07/08 20:23:24;;;;;;;0.25;0.25;;;;;;;;;;12630474;28;20040;-82
2022/07/08 20:29:26;;;;;;;0.60;0.40;;;;;;;;;;12630183;28;20043;-76
2022/07/08 20:35:28;;;;;;;0.43;0.30;;;;;;;;;;12614155;28;20055;-76
2022/07/08 20:47:50;;;;;;;0.40;0.40;;;;;;;;;;12647643;28;20063;-75
2022/07/08 20:53:52;;;;;;;1.55;0.70;;;;;;;;;;12649065;28;20379;-76
2022/07/08 20:59:54;;;;;;;0.47;0.47;;;;;;;;;;12648294;28;20507;-82
2022/07/08 21:05:55;;;;;;;1.20;0.40;;;;;;;;;;12647842;28;20032;-82
2022/07/08 21:11:57;;;;;;;0.80;0.40;;;;;;;;;;12648741;28;20043;-78
2022/07/08 21:17:59;;;;;;;0.43;0.43;;;;;;;;;;12647861;28;20039;-76
2022/07/08 21:24:01;;;;;;;0.68;0.50;;;;;;;;;;12647137;28;20040;-83
2022/07/08 21:30:07;;;;;;;0.60;0.47;;;;;;;;;;12646648;28;20040;-77
2022/07/08 21:36:08;;;;;;;0.88;0.60;;;;;;;;;;12648973;28;20511;-77
2022/07/08 21:42:10;;;;;;;0.35;0.35;;;;;;;;;;12648584;28;20078;-82
2022/07/08 21:48:12;;;;;;;0.80;0.47;;;;;;;;;;12610987;28;20423;-83
2022/07/08 21:54:14;;;;;;;0.55;0.55;;;;;;;;;;12654249;28;20504;-77
2022/07/08 22:00:16;;;;;;;0.70;0.70;;;;;;;;;;12648188;28;20039;-82
2022/07/08 22:06:18;;;;;;;0.75;0.70;;;;;;;;;;12626606;28;20024;-83
2022/07/08 22:12:20;;;;;;;1.25;0.75;;;;;;;;;;12645319;28;20040;-77
2022/07/08 22:18:22;;;;;;;0.77;0.77;;;;;;;;;;12627119;28;20036;-78
2022/07/08 22:24:24;;;;;;;0.90;0.70;;;;;;;;;;12644658;28;20028;-77
2022/07/08 22:30:25;;;;;;;0.75;0.70;;;;;;;;;;12629011;28;20044;-83
2022/07/08 22:36:27;;;;;;;1.13;1.02;;;;;;;;;;12626534;28;20040;-78
2022/07/08 22:42:29;;;;;;;0.80;0.80;;;;;;;;;;12645530;28;20063;-82
2022/07/08 22:48:31;;;;;;;0.90;0.70;;;;;;;;;;12609947;28;20036;-77
2022/07/08 22:54:32;;;;;;;0.80;0.70;;;;;;;;;;12658662;28;20024;-77
2022/07/08 23:00:34;;;;;;;3.20;0.98;;;;;;;;;;12641991;28;20036;-82
2022/07/08 23:06:36;;;;;;;1.02;0.88;;;;;;;;;;12643756;28;20036;-77
2022/07/08 23:12:37;;;;;;;1.95;0.70;;;;;;;;;;12661736;28;20421;-82
2022/07/08 23:18:39;;;;;;;1.23;0.60;;;;;;;;;;12643539;28;20506;-82
2022/07/08 23:24:41;;;;;;;1.30;1.10;;;;;;;;;;12626631;28;20040;-83
2022/07/08 23:30:43;;;;;;;0.88;0.82;;;;;;;;;;12662379;28;20036;-77
2022/07/08 23:36:45;;;;;;;1.65;1.00;;;;;;;;;;12662637;28;20039;-77
2022/07/08 23:42:47;;;;;;;;;;;;;;;;;;12662767;28;20052;-78
2022/07/08 23:48:49;;;;;;;;;;;;;;;;;;12661409;28;19923;-82
2022/07/08 23:54:52;;;;;;;0.73;0.73;;;;;;;;;;12663128;28;19930;-77
